sensor_id;sensor_type;location;lat;lon;timestamp;P1;durP1;ratioP1;P2;durP2;ratioP2
37909;SDS011;23741;49.446;8.754;2023-08-01T00:00:04;4.00;;;2.20;;
37909;SDS011;23741;49.446;8.754;2023-08-01T00:02:11;3.47;;;2.00;;
37909;SDS011;23741;49.446;8.754;2023-08-01T00:04:13;5.93;;;2.10;;
37909;SDS011;23741;49.446;8.754;2023-08-01T00:06:15;5.57;;;2.55;;
37909;SDS011;23741;49.446;8.754;2023-08-01T00:08:17;3.65;;;2.30;;
37909;SDS011;23741;49.446;8.754;2023-08-01T00:10:18;3.03;;;2.20;;
37909;SDS011;23741;49.446;8.754;2023-08-01T00:12:20;2.85;;;2.42;;
37909;SDS011;23741;49.446;8.754;2023-08-01T00:14:23;4.20;;;2.65;;
37909;SDS011;23741;49.446;8.754;2023-08-01T00:16:27;2.85;;;2.20;;
37909;SDS011;23741;49.446;8.754;2023-08-01T00:18:29;3.30;;;2.45;;
37909;SDS011;23741;49.446;8.754;2023-08-01T00:20:31;3.90;;;2.55;;
37909;SDS011;23741;49.446;8.754;2023-08-01T00:22:33;3.47;;;2.50;;
37909;SDS011;23741;49.446;8.754;2023-08-01T00:24:35;4.05;;;2.50;;
37909;SDS011;23741;49.446;8.754;2023-08-01T00:28:39;4.88;;;2.80;;
37909;SDS011;23741;49.446;8.754;2023-08-01T00:30:41;3.78;;;2.78;;
37909;SDS011;23741;49.446;8.754;2023-08-01T00:32:43;5.00;;;3.03;;
37909;SDS011;23741;49.446;8.754;2023-08-01T00:34:45;4.07;;;2.72;;
37909;SDS011;23741;49.446;8.754;2023-08-01T00:36:46;2.60;;;2.22;;
37909;SDS011;23741;49.446;8.754;2023-08-01T00:38:50;3.90;;;2.47;;
37909;SDS011;23741;49.446;8.754;2023-08-01T00:40:52;3.58;;;2.15;;
37909;SDS011;23741;49.446;8.754;2023-08-01T00:42:54;5.67;;;2.37;;
37909;SDS011;23741;49.446;8.754;2023-08-01T00:44:58;3.03;;;2.22;;
37909;SDS011;23741;49.446;8.754;2023-08-01T00:47:01;4.63;;;2.38;;
37909;SDS011;23741;49.446;8.754;2023-08-01T00:49:03;3.40;;;2.63;;
37909;SDS011;23741;49.446;8.754;2023-08-01T00:51:05;4.03;;;2.70;;
37909;SDS011;23741;49.446;8.754;2023-08-01T00:53:08;3.40;;;2.70;;
37909;SDS011;23741;49.446;8.754;2023-08-01T00:55:11;3.28;;;2.45;;
37909;SDS011;23741;49.446;8.754;2023-08-01T00:57:15;6.50;;;2.65;;
37909;SDS011;23741;49.446;8.754;2023-08-01T00:59:16;3.47;;;2.67;;
37909;SDS011;23741;49.446;8.754;2023-08-01T01:01:18;3.42;;;2.42;;
37909;SDS011;23741;49.446;8.754;2023-08-01T01:03:21;2.97;;;2.10;;
37909;SDS011;23741;49.446;8.754;2023-08-01T01:05:23;4.65;;;2.53;;
37909;SDS011;23741;49.446;8.754;2023-08-01T01:07:26;5.68;;;2.60;;
37909;SDS011;23741;49.446;8.754;2023-08-01T01:09:30;4.05;;;2.33;;
37909;SDS011;23741;49.446;8.754;2023-08-01T01:11:34;3.50;;;2.50;;
37909;SDS011;23741;49.446;8.754;2023-08-01T01:13:36;5.15;;;2.42;;
37909;SDS011;23741;49.446;8.754;2023-08-01T01:15:38;4.32;;;2.58;;
37909;SDS011;23741;49.446;8.754;2023-08-01T01:17:40;3.13;;;2.40;;
37909;SDS011;23741;49.446;8.754;2023-08-01T01:19:42;7.30;;;3.55;;
37909;SDS011;23741;49.446;8.754;2023-08-01T01:21:44;3.10;;;2.17;;
37909;SDS011;23741;49.446;8.754;2023-08-01T01:23:48;3.95;;;2.22;;
37909;SDS011;23741;49.446;8.754;2023-08-01T01:25:52;4.35;;;3.22;;
37909;SDS011;23741;49.446;8.754;2023-08-01T01:27:55;4.18;;;2.75;;
37909;SDS011;23741;49.446;8.754;2023-08-01T01:29:59;4.78;;;2.70;;
37909;SDS011;23741;49.446;8.754;2023-08-01T01:32:02;3.60;;;2.38;;
37909;SDS011;23741;49.446;8.754;2023-08-01T01:34:07;2.47;;;2.17;;
37909;SDS011;23741;49.446;8.754;2023-08-01T01:36:08;5.13;;;3.10;;
37909;SDS011;23741;49.446;8.754;2023-08-01T01:38:11;7.72;;;2.78;;
37909;SDS011;23741;49.446;8.754;2023-08-01T01:40:12;6.38;;;2.60;;
37909;SDS011;23741;49.446;8.754;2023-08-01T01:42:14;3.63;;;2.40;;
37909;SDS011;23741;49.446;8.754;2023-08-01T01:44:16;5.97;;;2.63;;
37909;SDS011;23741;49.446;8.754;2023-08-01T01:46:18;3.83;;;2.67;;
37909;SDS011;23741;49.446;8.754;2023-08-01T01:48:20;4.22;;;2.70;;
37909;SDS011;23741;49.446;8.754;2023-08-01T01:50:21;4.70;;;2.70;;
37909;SDS011;23741;49.446;8.754;2023-08-01T01:52:23;4.75;;;2.95;;
37909;SDS011;23741;49.446;8.754;2023-08-01T01:54:25;5.77;;;2.60;;
37909;SDS011;23741;49.446;8.754;2023-08-01T01:56:28;3.85;;;2.38;;
37909;SDS011;23741;49.446;8.754;2023-08-01T01:58:31;3.70;;;2.53;;
37909;SDS011;23741;49.446;8.754;2023-08-01T02:00:33;5.18;;;2.88;;
37909;SDS011;23741;49.446;8.754;2023-08-01T02:02:34;3.15;;;2.45;;
37909;SDS011;23741;49.446;8.754;2023-08-01T02:04:37;4.67;;;2.67;;
37909;SDS011;23741;49.446;8.754;2023-08-01T02:06:39;2.97;;;2.60;;
37909;SDS011;23741;49.446;8.754;2023-08-01T02:08:41;6.00;;;3.00;;
37909;SDS011;23741;49.446;8.754;2023-08-01T02:10:43;4.97;;;2.80;;
37909;SDS011;23741;49.446;8.754;2023-08-01T02:12:45;6.10;;;2.92;;
37909;SDS011;23741;49.446;8.754;2023-08-01T02:14:46;4.50;;;3.08;;
37909;SDS011;23741;49.446;8.754;2023-08-01T02:16:48;8.30;;;2.90;;
37909;SDS011;23741;49.446;8.754;2023-08-01T02:18:50;5.63;;;2.77;;
37909;SDS011;23741;49.446;8.754;2023-08-01T02:20:52;4.43;;;2.53;;
37909;SDS011;23741;49.446;8.754;2023-08-01T02:22:54;3.88;;;2.65;;
37909;SDS011;23741;49.446;8.754;2023-08-01T02:24:56;3.92;;;2.88;;
37909;SDS011;23741;49.446;8.754;2023-08-01T02:26:58;3.83;;;2.50;;
37909;SDS011;23741;49.446;8.754;2023-08-01T02:28:59;4.47;;;2.60;;
37909;SDS011;23741;49.446;8.754;2023-08-01T02:31:01;4.80;;;2.50;;
37909;SDS011;23741;49.446;8.754;2023-08-01T02:33:03;4.93;;;2.65;;
37909;SDS011;23741;49.446;8.754;2023-08-01T02:35:05;4.30;;;2.83;;
37909;SDS011;23741;49.446;8.754;2023-08-01T02:37:07;4.95;;;3.22;;
37909;SDS011;23741;49.446;8.754;2023-08-01T02:39:09;3.22;;;2.67;;
37909;SDS011;23741;49.446;8.754;2023-08-01T02:41:11;3.20;;;2.20;;
37909;SDS011;23741;49.446;8.754;2023-08-01T02:43:13;3.42;;;2.35;;
37909;SDS011;23741;49.446;8.754;2023-08-01T02:45:15;4.50;;;2.45;;
37909;SDS011;23741;49.446;8.754;2023-08-01T02:47:17;5.78;;;3.60;;
37909;SDS011;23741;49.446;8.754;2023-08-01T02:49:19;3.08;;;2.75;;
37909;SDS011;23741;49.446;8.754;2023-08-01T02:51:21;4.32;;;2.75;;
37909;SDS011;23741;49.446;8.754;2023-08-01T02:53:23;5.70;;;2.75;;
37909;SDS011;23741;49.446;8.754;2023-08-01T02:55:24;3.65;;;2.70;;
37909;SDS011;23741;49.446;8.754;2023-08-01T02:57:26;6.90;;;3.25;;
37909;SDS011;23741;49.446;8.754;2023-08-01T02:59:28;4.88;;;2.95;;
37909;SDS011;23741;49.446;8.754;2023-08-01T03:01:31;6.88;;;2.90;;
37909;SDS011;23741;49.446;8.754;2023-08-01T03:05:37;6.22;;;3.25;;
37909;SDS011;23741;49.446;8.754;2023-08-01T03:07:38;3.60;;;2.95;;
37909;SDS011;23741;49.446;8.754;2023-08-01T03:09:41;3.95;;;2.95;;
37909;SDS011;23741;49.446;8.754;2023-08-01T03:11:44;2.92;;;2.63;;
37909;SDS011;23741;49.446;8.754;2023-08-01T03:13:46;6.30;;;2.70;;
37909;SDS011;23741;49.446;8.754;2023-08-01T03:15:48;6.63;;;2.97;;
37909;SDS011;23741;49.446;8.754;2023-08-01T03:17:49;4.97;;;2.95;;
37909;SDS011;23741;49.446;8.754;2023-08-01T03:19:51;4.88;;;2.85;;
37909;SDS011;23741;49.446;8.754;2023-08-01T03:21:53;5.03;;;3.10;;
37909;SDS011;23741;49.446;8.754;2023-08-01T03:23:56;3.90;;;2.92;;
37909;SDS011;23741;49.446;8.754;2023-08-01T03:25:58;3.05;;;2.30;;
37909;SDS011;23741;49.446;8.754;2023-08-01T03:28:00;4.63;;;2.55;;
37909;SDS011;23741;49.446;8.754;2023-08-01T03:30:07;4.43;;;3.00;;
37909;SDS011;23741;49.446;8.754;2023-08-01T03:32:10;3.20;;;2.55;;
37909;SDS011;23741;49.446;8.754;2023-08-01T03:34:12;4.57;;;2.40;;
37909;SDS011;23741;49.446;8.754;2023-08-01T03:36:14;4.00;;;2.80;;
37909;SDS011;23741;49.446;8.754;2023-08-01T03:38:16;5.67;;;2.83;;
37909;SDS011;23741;49.446;8.754;2023-08-01T03:40:17;3.60;;;2.85;;
37909;SDS011;23741;49.446;8.754;2023-08-01T03:42:21;3.50;;;2.47;;
37909;SDS011;23741;49.446;8.754;2023-08-01T03:44:22;4.55;;;2.53;;
37909;SDS011;23741;49.446;8.754;2023-08-01T03:46:24;3.75;;;2.90;;
37909;SDS011;23741;49.446;8.754;2023-08-01T03:48:27;3.45;;;2.38;;
37909;SDS011;23741;49.446;8.754;2023-08-01T03:50:28;2.65;;;2.30;;
37909;SDS011;23741;49.446;8.754;2023-08-01T03:52:30;2.83;;;2.30;;
37909;SDS011;23741;49.446;8.754;2023-08-01T03:54:32;4.38;;;2.63;;
37909;SDS011;23741;49.446;8.754;2023-08-01T03:56:34;3.00;;;2.38;;
37909;SDS011;23741;49.446;8.754;2023-08-01T03:58:35;3.95;;;2.50;;
37909;SDS011;23741;49.446;8.754;2023-08-01T04:00:37;3.03;;;2.50;;
37909;SDS011;23741;49.446;8.754;2023-08-01T04:02:40;3.83;;;2.78;;
37909;SDS011;23741;49.446;8.754;2023-08-01T04:04:46;3.85;;;2.30;;
37909;SDS011;23741;49.446;8.754;2023-08-01T04:06:48;3.05;;;2.75;;
37909;SDS011;23741;49.446;8.754;2023-08-01T04:08:49;4.95;;;2.92;;
37909;SDS011;23741;49.446;8.754;2023-08-01T04:10:52;4.88;;;2.40;;
37909;SDS011;23741;49.446;8.754;2023-08-01T04:12:54;3.77;;;2.50;;
37909;SDS011;23741;49.446;8.754;2023-08-01T04:14:56;3.53;;;2.50;;
37909;SDS011;23741;49.446;8.754;2023-08-01T04:16:58;5.60;;;2.30;;
37909;SDS011;23741;49.446;8.754;2023-08-01T04:19:00;4.53;;;2.70;;
37909;SDS011;23741;49.446;8.754;2023-08-01T04:21:01;4.10;;;2.28;;
37909;SDS011;23741;49.446;8.754;2023-08-01T04:23:05;6.03;;;2.40;;
37909;SDS011;23741;49.446;8.754;2023-08-01T04:25:07;5.20;;;2.67;;
37909;SDS011;23741;49.446;8.754;2023-08-01T04:27:16;4.88;;;3.00;;
37909;SDS011;23741;49.446;8.754;2023-08-01T04:29:18;5.38;;;2.53;;
37909;SDS011;23741;49.446;8.754;2023-08-01T04:31:19;4.20;;;2.58;;
37909;SDS011;23741;49.446;8.754;2023-08-01T04:33:21;2.97;;;2.25;;
37909;SDS011;23741;49.446;8.754;2023-08-01T04:35:23;5.13;;;2.40;;
37909;SDS011;23741;49.446;8.754;2023-08-01T04:37:25;4.70;;;2.70;;
37909;SDS011;23741;49.446;8.754;2023-08-01T04:39:27;4.28;;;2.30;;
37909;SDS011;23741;49.446;8.754;2023-08-01T04:41:29;4.28;;;2.60;;
37909;SDS011;23741;49.446;8.754;2023-08-01T04:43:30;4.38;;;2.63;;
37909;SDS011;23741;49.446;8.754;2023-08-01T04:45:32;4.28;;;3.17;;
37909;SDS011;23741;49.446;8.754;2023-08-01T04:47:34;4.57;;;2.45;;
37909;SDS011;23741;49.446;8.754;2023-08-01T04:49:36;3.20;;;2.28;;
37909;SDS011;23741;49.446;8.754;2023-08-01T04:51:38;7.32;;;2.70;;
37909;SDS011;23741;49.446;8.754;2023-08-01T04:53:40;3.85;;;2.22;;
37909;SDS011;23741;49.446;8.754;2023-08-01T04:55:42;2.50;;;2.07;;
37909;SDS011;23741;49.446;8.754;2023-08-01T04:57:46;2.90;;;2.17;;
37909;SDS011;23741;49.446;8.754;2023-08-01T04:59:48;5.70;;;2.83;;
37909;SDS011;23741;49.446;8.754;2023-08-01T05:01:49;5.13;;;2.65;;
37909;SDS011;23741;49.446;8.754;2023-08-01T05:03:51;3.28;;;2.30;;
37909;SDS011;23741;49.446;8.754;2023-08-01T05:05:53;4.77;;;2.57;;
37909;SDS011;23741;49.446;8.754;2023-08-01T05:07:55;3.58;;;1.98;;
37909;SDS011;23741;49.446;8.754;2023-08-01T05:09:57;6.65;;;2.03;;
37909;SDS011;23741;49.446;8.754;2023-08-01T05:11:59;2.22;;;1.83;;
37909;SDS011;23741;49.446;8.754;2023-08-01T05:14:01;2.13;;;1.83;;
37909;SDS011;23741;49.446;8.754;2023-08-01T05:16:02;4.47;;;2.10;;
37909;SDS011;23741;49.446;8.754;2023-08-01T05:18:04;2.10;;;1.80;;
37909;SDS011;23741;49.446;8.754;2023-08-01T05:20:06;3.00;;;2.20;;
37909;SDS011;23741;49.446;8.754;2023-08-01T05:22:09;2.95;;;2.20;;
37909;SDS011;23741;49.446;8.754;2023-08-01T05:24:11;4.13;;;2.20;;
37909;SDS011;23741;49.446;8.754;2023-08-01T05:26:12;3.75;;;2.92;;
37909;SDS011;23741;49.446;8.754;2023-08-01T05:28:14;3.45;;;2.28;;
37909;SDS011;23741;49.446;8.754;2023-08-01T05:30:26;6.28;;;2.30;;
37909;SDS011;23741;49.446;8.754;2023-08-01T05:32:28;3.40;;;2.70;;
37909;SDS011;23741;49.446;8.754;2023-08-01T05:34:30;3.27;;;2.30;;
37909;SDS011;23741;49.446;8.754;2023-08-01T05:36:31;2.83;;;2.13;;
37909;SDS011;23741;49.446;8.754;2023-08-01T05:38:33;3.42;;;1.88;;
37909;SDS011;23741;49.446;8.754;2023-08-01T05:40:35;3.63;;;2.20;;
37909;SDS011;23741;49.446;8.754;2023-08-01T05:42:37;4.75;;;1.95;;
37909;SDS011;23741;49.446;8.754;2023-08-01T05:44:39;3.67;;;2.20;;
37909;SDS011;23741;49.446;8.754;2023-08-01T05:46:40;2.72;;;2.00;;
37909;SDS011;23741;49.446;8.754;2023-08-01T05:48:43;3.13;;;2.67;;
37909;SDS011;23741;49.446;8.754;2023-08-01T05:50:44;4.47;;;2.47;;
37909;SDS011;23741;49.446;8.754;2023-08-01T05:52:46;4.15;;;2.53;;
37909;SDS011;23741;49.446;8.754;2023-08-01T05:54:48;4.60;;;2.42;;
37909;SDS011;23741;49.446;8.754;2023-08-01T05:56:50;2.90;;;2.05;;
37909;SDS011;23741;49.446;8.754;2023-08-01T05:58:52;1.97;;;1.73;;
37909;SDS011;23741;49.446;8.754;2023-08-01T06:00:53;3.80;;;2.33;;
37909;SDS011;23741;49.446;8.754;2023-08-01T06:02:55;7.35;;;2.00;;
37909;SDS011;23741;49.446;8.754;2023-08-01T06:04:57;2.67;;;2.03;;
37909;SDS011;23741;49.446;8.754;2023-08-01T06:06:59;2.10;;;1.80;;
37909;SDS011;23741;49.446;8.754;2023-08-01T06:09:01;2.65;;;2.15;;
37909;SDS011;23741;49.446;8.754;2023-08-01T06:11:03;2.13;;;1.60;;
37909;SDS011;23741;49.446;8.754;2023-08-01T06:13:05;6.70;;;1.90;;
37909;SDS011;23741;49.446;8.754;2023-08-01T06:15:07;3.20;;;2.33;;
37909;SDS011;23741;49.446;8.754;2023-08-01T06:17:09;3.05;;;2.20;;
37909;SDS011;23741;49.446;8.754;2023-08-01T06:19:11;2.85;;;2.17;;
37909;SDS011;23741;49.446;8.754;2023-08-01T06:21:13;4.47;;;2.03;;
37909;SDS011;23741;49.446;8.754;2023-08-01T06:23:14;2.72;;;2.13;;
37909;SDS011;23741;49.446;8.754;2023-08-01T06:25:16;4.47;;;2.28;;
37909;SDS011;23741;49.446;8.754;2023-08-01T06:27:18;2.27;;;1.87;;
37909;SDS011;23741;49.446;8.754;2023-08-01T06:29:20;2.63;;;1.92;;
37909;SDS011;23741;49.446;8.754;2023-08-01T06:31:22;2.75;;;2.08;;
37909;SDS011;23741;49.446;8.754;2023-08-01T06:33:24;3.53;;;2.13;;
37909;SDS011;23741;49.446;8.754;2023-08-01T06:35:25;2.60;;;1.85;;
37909;SDS011;23741;49.446;8.754;2023-08-01T06:37:27;3.50;;;2.50;;
37909;SDS011;23741;49.446;8.754;2023-08-01T06:39:29;3.13;;;2.57;;
37909;SDS011;23741;49.446;8.754;2023-08-01T06:41:31;3.27;;;2.57;;
37909;SDS011;23741;49.446;8.754;2023-08-01T06:43:33;3.75;;;2.65;;
37909;SDS011;23741;49.446;8.754;2023-08-01T06:45:35;4.55;;;2.60;;
37909;SDS011;23741;49.446;8.754;2023-08-01T06:47:37;5.03;;;2.60;;
37909;SDS011;23741;49.446;8.754;2023-08-01T06:49:39;3.55;;;3.05;;
37909;SDS011;23741;49.446;8.754;2023-08-01T06:51:41;6.25;;;3.20;;
37909;SDS011;23741;49.446;8.754;2023-08-01T06:55:45;3.33;;;2.40;;
37909;SDS011;23741;49.446;8.754;2023-08-01T06:57:47;4.55;;;2.85;;
37909;SDS011;23741;49.446;8.754;2023-08-01T06:59:49;4.85;;;2.60;;
37909;SDS011;23741;49.446;8.754;2023-08-01T07:01:51;8.38;;;3.15;;
37909;SDS011;23741;49.446;8.754;2023-08-01T07:03:53;2.55;;;2.05;;
37909;SDS011;23741;49.446;8.754;2023-08-01T07:05:56;3.78;;;2.50;;
37909;SDS011;23741;49.446;8.754;2023-08-01T07:07:58;4.10;;;2.25;;
37909;SDS011;23741;49.446;8.754;2023-08-01T07:09:59;2.63;;;1.80;;
37909;SDS011;23741;49.446;8.754;2023-08-01T07:12:01;3.92;;;2.30;;
37909;SDS011;23741;49.446;8.754;2023-08-01T07:14:03;2.78;;;1.77;;
37909;SDS011;23741;49.446;8.754;2023-08-01T07:16:05;3.08;;;1.75;;
37909;SDS011;23741;49.446;8.754;2023-08-01T07:18:07;3.27;;;1.90;;
37909;SDS011;23741;49.446;8.754;2023-08-01T07:20:09;2.85;;;1.48;;
37909;SDS011;23741;49.446;8.754;2023-08-01T07:22:12;1.27;;;1.15;;
37909;SDS011;23741;49.446;8.754;2023-08-01T07:24:13;1.98;;;1.63;;
37909;SDS011;23741;49.446;8.754;2023-08-01T07:26:16;1.27;;;1.17;;
37909;SDS011;23741;49.446;8.754;2023-08-01T07:28:18;1.42;;;1.10;;
37909;SDS011;23741;49.446;8.754;2023-08-01T07:30:20;4.25;;;1.67;;
37909;SDS011;23741;49.446;8.754;2023-08-01T07:32:22;1.50;;;1.40;;
37909;SDS011;23741;49.446;8.754;2023-08-01T07:34:28;1.83;;;1.30;;
37909;SDS011;23741;49.446;8.754;2023-08-01T07:36:30;2.88;;;1.75;;
37909;SDS011;23741;49.446;8.754;2023-08-01T07:38:32;2.40;;;1.70;;
37909;SDS011;23741;49.446;8.754;2023-08-01T07:40:35;2.10;;;1.50;;
37909;SDS011;23741;49.446;8.754;2023-08-01T07:42:38;2.38;;;1.48;;
37909;SDS011;23741;49.446;8.754;2023-08-01T07:44:39;2.60;;;2.38;;
37909;SDS011;23741;49.446;8.754;2023-08-01T07:46:41;4.03;;;1.88;;
37909;SDS011;23741;49.446;8.754;2023-08-01T07:48:43;2.13;;;1.48;;
37909;SDS011;23741;49.446;8.754;2023-08-01T07:50:45;2.72;;;1.65;;
37909;SDS011;23741;49.446;8.754;2023-08-01T07:52:47;2.50;;;1.80;;
37909;SDS011;23741;49.446;8.754;2023-08-01T07:54:49;2.85;;;1.95;;
37909;SDS011;23741;49.446;8.754;2023-08-01T07:56:51;3.65;;;2.03;;
37909;SDS011;23741;49.446;8.754;2023-08-01T07:58:53;2.05;;;1.77;;
37909;SDS011;23741;49.446;8.754;2023-08-01T08:00:55;4.75;;;2.35;;
37909;SDS011;23741;49.446;8.754;2023-08-01T08:02:57;2.95;;;2.03;;
37909;SDS011;23741;49.446;8.754;2023-08-01T08:04:59;3.55;;;2.03;;
37909;SDS011;23741;49.446;8.754;2023-08-01T08:07:01;3.78;;;2.10;;
37909;SDS011;23741;49.446;8.754;2023-08-01T08:09:03;1.80;;;1.57;;
37909;SDS011;23741;49.446;8.754;2023-08-01T08:11:04;1.87;;;1.63;;
37909;SDS011;23741;49.446;8.754;2023-08-01T08:13:06;2.50;;;1.67;;
37909;SDS011;23741;49.446;8.754;2023-08-01T08:15:08;2.17;;;1.70;;
37909;SDS011;23741;49.446;8.754;2023-08-01T08:17:10;1.43;;;1.30;;
37909;SDS011;23741;49.446;8.754;2023-08-01T08:19:12;3.53;;;1.95;;
37909;SDS011;23741;49.446;8.754;2023-08-01T08:21:14;1.65;;;1.52;;
37909;SDS011;23741;49.446;8.754;2023-08-01T08:23:16;2.07;;;1.47;;
37909;SDS011;23741;49.446;8.754;2023-08-01T08:25:18;2.28;;;1.50;;
37909;SDS011;23741;49.446;8.754;2023-08-01T08:27:20;1.60;;;1.48;;
37909;SDS011;23741;49.446;8.754;2023-08-01T08:29:22;2.25;;;1.52;;
37909;SDS011;23741;49.446;8.754;2023-08-01T08:31:24;4.00;;;1.58;;
37909;SDS011;23741;49.446;8.754;2023-08-01T08:33:25;1.83;;;1.67;;
37909;SDS011;23741;49.446;8.754;2023-08-01T08:35:27;2.08;;;1.50;;
37909;SDS011;23741;49.446;8.754;2023-08-01T08:37:29;4.82;;;1.67;;
37909;SDS011;23741;49.446;8.754;2023-08-01T08:39:31;1.73;;;1.10;;
37909;SDS011;23741;49.446;8.754;2023-08-01T08:41:35;1.52;;;1.42;;
37909;SDS011;23741;49.446;8.754;2023-08-01T08:43:39;2.55;;;1.77;;
37909;SDS011;23741;49.446;8.754;2023-08-01T08:45:43;1.90;;;1.58;;
37909;SDS011;23741;49.446;8.754;2023-08-01T08:47:49;3.72;;;1.38;;
37909;SDS011;23741;49.446;8.754;2023-08-01T08:50:01;2.45;;;1.70;;
37909;SDS011;23741;49.446;8.754;2023-08-01T08:52:04;2.50;;;1.90;;
37909;SDS011;23741;49.446;8.754;2023-08-01T08:54:07;2.47;;;1.50;;
37909;SDS011;23741;49.446;8.754;2023-08-01T08:58:12;1.92;;;1.42;;
37909;SDS011;23741;49.446;8.754;2023-08-01T09:00:14;2.78;;;1.45;;
37909;SDS011;23741;49.446;8.754;2023-08-01T09:02:16;1.60;;;1.50;;
37909;SDS011;23741;49.446;8.754;2023-08-01T09:04:19;1.88;;;1.52;;
37909;SDS011;23741;49.446;8.754;2023-08-01T09:06:22;1.30;;;1.20;;
37909;SDS011;23741;49.446;8.754;2023-08-01T09:08:27;1.98;;;1.77;;
37909;SDS011;23741;49.446;8.754;2023-08-01T09:10:32;3.83;;;1.35;;
37909;SDS011;23741;49.446;8.754;2023-08-01T09:12:34;1.00;;;0.90;;
37909;SDS011;23741;49.446;8.754;2023-08-01T09:14:36;0.98;;;0.98;;
37909;SDS011;23741;49.446;8.754;2023-08-01T09:16:39;1.10;;;1.00;;
37909;SDS011;23741;49.446;8.754;2023-08-01T09:18:49;1.42;;;0.77;;
37909;SDS011;23741;49.446;8.754;2023-08-01T09:20:51;0.73;;;0.73;;
37909;SDS011;23741;49.446;8.754;2023-08-01T09:22:53;1.00;;;0.90;;
37909;SDS011;23741;49.446;8.754;2023-08-01T09:24:55;0.95;;;0.70;;
37909;SDS011;23741;49.446;8.754;2023-08-01T09:27:02;0.65;;;0.65;;
37909;SDS011;23741;49.446;8.754;2023-08-01T09:29:09;1.02;;;0.90;;
37909;SDS011;23741;49.446;8.754;2023-08-01T09:31:11;0.80;;;0.73;;
37909;SDS011;23741;49.446;8.754;2023-08-01T09:33:13;2.10;;;0.70;;
37909;SDS011;23741;49.446;8.754;2023-08-01T09:35:15;1.20;;;0.85;;
37909;SDS011;23741;49.446;8.754;2023-08-01T09:37:17;1.20;;;0.90;;
37909;SDS011;23741;49.446;8.754;2023-08-01T09:39:21;3.40;;;1.00;;
37909;SDS011;23741;49.446;8.754;2023-08-01T09:41:24;1.35;;;0.98;;
37909;SDS011;23741;49.446;8.754;2023-08-01T09:43:26;1.03;;;0.90;;
37909;SDS011;23741;49.446;8.754;2023-08-01T09:45:36;1.02;;;0.90;;
37909;SDS011;23741;49.446;8.754;2023-08-01T09:47:38;0.77;;;0.77;;
37909;SDS011;23741;49.446;8.754;2023-08-01T09:49:48;1.57;;;1.03;;
37909;SDS011;23741;49.446;8.754;2023-08-01T09:51:55;1.00;;;0.90;;
37909;SDS011;23741;49.446;8.754;2023-08-01T09:53:58;1.27;;;0.90;;
37909;SDS011;23741;49.446;8.754;2023-08-01T09:56:00;1.07;;;0.90;;
37909;SDS011;23741;49.446;8.754;2023-08-01T10:00:08;1.13;;;0.88;;
37909;SDS011;23741;49.446;8.754;2023-08-01T10:02:15;0.77;;;0.60;;
37909;SDS011;23741;49.446;8.754;2023-08-01T10:04:25;1.45;;;0.73;;
37909;SDS011;23741;49.446;8.754;2023-08-01T10:06:31;0.95;;;0.80;;
37909;SDS011;23741;49.446;8.754;2023-08-01T10:08:38;1.35;;;0.95;;
37909;SDS011;23741;49.446;8.754;2023-08-01T10:10:41;1.98;;;0.80;;
37909;SDS011;23741;49.446;8.754;2023-08-01T10:12:45;0.80;;;0.70;;
37909;SDS011;23741;49.446;8.754;2023-08-01T10:14:49;0.68;;;0.68;;
37909;SDS011;23741;49.446;8.754;2023-08-01T10:16:52;0.70;;;0.70;;
37909;SDS011;23741;49.446;8.754;2023-08-01T10:18:56;0.57;;;0.57;;
37909;SDS011;23741;49.446;8.754;2023-08-01T10:20:59;0.60;;;0.60;;
37909;SDS011;23741;49.446;8.754;2023-08-01T10:25:04;2.28;;;0.60;;
37909;SDS011;23741;49.446;8.754;2023-08-01T10:27:14;1.08;;;0.70;;
37909;SDS011;23741;49.446;8.754;2023-08-01T10:29:22;0.95;;;0.80;;
37909;SDS011;23741;49.446;8.754;2023-08-01T10:31:36;0.93;;;0.77;;
37909;SDS011;23741;49.446;8.754;2023-08-01T10:33:38;1.17;;;1.03;;
37909;SDS011;23741;49.446;8.754;2023-08-01T10:35:42;0.73;;;0.73;;
37909;SDS011;23741;49.446;8.754;2023-08-01T10:37:44;3.70;;;0.60;;
37909;SDS011;23741;49.446;8.754;2023-08-01T10:39:56;0.98;;;0.73;;
37909;SDS011;23741;49.446;8.754;2023-08-01T10:41:59;1.48;;;0.90;;
37909;SDS011;23741;49.446;8.754;2023-08-01T10:46:07;0.70;;;0.70;;
37909;SDS011;23741;49.446;8.754;2023-08-01T10:48:11;0.80;;;0.80;;
37909;SDS011;23741;49.446;8.754;2023-08-01T10:50:15;1.98;;;0.60;;
37909;SDS011;23741;49.446;8.754;2023-08-01T10:54:22;0.70;;;0.70;;
37909;SDS011;23741;49.446;8.754;2023-08-01T10:56:25;0.95;;;0.77;;
37909;SDS011;23741;49.446;8.754;2023-08-01T10:58:27;0.80;;;0.70;;
37909;SDS011;23741;49.446;8.754;2023-08-01T11:00:29;0.77;;;0.77;;
37909;SDS011;23741;49.446;8.754;2023-08-01T11:02:31;0.80;;;0.80;;
37909;SDS011;23741;49.446;8.754;2023-08-01T11:04:33;2.60;;;0.82;;
37909;SDS011;23741;49.446;8.754;2023-08-01T11:06:42;1.25;;;1.15;;
37909;SDS011;23741;49.446;8.754;2023-08-01T11:08:48;2.40;;;0.80;;
37909;SDS011;23741;49.446;8.754;2023-08-01T11:10:49;0.68;;;0.68;;
37909;SDS011;23741;49.446;8.754;2023-08-01T11:15:00;2.20;;;1.10;;
37909;SDS011;23741;49.446;8.754;2023-08-01T11:17:02;1.17;;;0.90;;
37909;SDS011;23741;49.446;8.754;2023-08-01T11:19:05;7.45;;;0.90;;
37909;SDS011;23741;49.446;8.754;2023-08-01T11:21:07;1.08;;;0.85;;
37909;SDS011;23741;49.446;8.754;2023-08-01T11:23:09;1.52;;;1.33;;
37909;SDS011;23741;49.446;8.754;2023-08-01T11:25:12;1.88;;;0.93;;
37909;SDS011;23741;49.446;8.754;2023-08-01T11:27:14;1.15;;;1.05;;
37909;SDS011;23741;49.446;8.754;2023-08-01T11:29:17;0.80;;;0.70;;
37909;SDS011;23741;49.446;8.754;2023-08-01T11:31:20;0.75;;;0.75;;
37909;SDS011;23741;49.446;8.754;2023-08-01T11:33:22;0.63;;;0.63;;
37909;SDS011;23741;49.446;8.754;2023-08-01T11:35:25;0.93;;;0.73;;
37909;SDS011;23741;49.446;8.754;2023-08-01T11:37:27;1.10;;;1.00;;
37909;SDS011;23741;49.446;8.754;2023-08-01T11:39:29;0.80;;;0.75;;
37909;SDS011;23741;49.446;8.754;2023-08-01T11:41:31;0.68;;;0.63;;
37909;SDS011;23741;49.446;8.754;2023-08-01T11:43:42;1.13;;;0.80;;
37909;SDS011;23741;49.446;8.754;2023-08-01T11:45:51;0.65;;;0.63;;
37909;SDS011;23741;49.446;8.754;2023-08-01T11:47:55;1.05;;;0.80;;
37909;SDS011;23741;49.446;8.754;2023-08-01T11:49:57;0.93;;;0.90;;
37909;SDS011;23741;49.446;8.754;2023-08-01T11:51:59;2.90;;;0.83;;
37909;SDS011;23741;49.446;8.754;2023-08-01T11:54:02;0.90;;;0.80;;
37909;SDS011;23741;49.446;8.754;2023-08-01T11:56:05;0.80;;;0.60;;
37909;SDS011;23741;49.446;8.754;2023-08-01T11:58:07;1.08;;;0.77;;
37909;SDS011;23741;49.446;8.754;2023-08-01T12:00:09;1.20;;;1.05;;
37909;SDS011;23741;49.446;8.754;2023-08-01T12:04:25;1.63;;;0.90;;
37909;SDS011;23741;49.446;8.754;2023-08-01T12:06:30;0.98;;;0.90;;
37909;SDS011;23741;49.446;8.754;2023-08-01T12:08:33;1.20;;;0.90;;
37909;SDS011;23741;49.446;8.754;2023-08-01T12:10:42;0.70;;;0.70;;
37909;SDS011;23741;49.446;8.754;2023-08-01T12:12:46;0.98;;;0.85;;
37909;SDS011;23741;49.446;8.754;2023-08-01T12:14:49;2.03;;;0.88;;
37909;SDS011;23741;49.446;8.754;2023-08-01T12:16:51;0.67;;;0.67;;
37909;SDS011;23741;49.446;8.754;2023-08-01T12:18:53;0.60;;;0.60;;
37909;SDS011;23741;49.446;8.754;2023-08-01T12:21:01;1.13;;;0.80;;
37909;SDS011;23741;49.446;8.754;2023-08-01T12:23:03;1.27;;;0.77;;
37909;SDS011;23741;49.446;8.754;2023-08-01T12:25:05;0.82;;;0.75;;
37909;SDS011;23741;49.446;8.754;2023-08-01T12:27:08;1.38;;;0.98;;
37909;SDS011;23741;49.446;8.754;2023-08-01T12:29:10;1.75;;;1.30;;
37909;SDS011;23741;49.446;8.754;2023-08-01T12:31:20;1.77;;;0.70;;
37909;SDS011;23741;49.446;8.754;2023-08-01T12:33:23;0.77;;;0.77;;
37909;SDS011;23741;49.446;8.754;2023-08-01T12:35:28;1.08;;;0.98;;
37909;SDS011;23741;49.446;8.754;2023-08-01T12:37:30;1.03;;;0.90;;
37909;SDS011;23741;49.446;8.754;2023-08-01T12:39:32;1.13;;;0.70;;